Ledyard, New York
Current Conditions -  °F | °C
As of 10:56 AM on Thursday 30 Oct 2014 (Local Time) from KITH Reporting Station
Broken Clouds Broken Clouds  
Wind Chill: 40°   Ceiling: 2000
Heat Index: 45°   Visibility: 10mi
Dew Point: 37°   Wind: 9mph
Humidity: 73%   Direction: 310°NW
Pressure: 30.05"   Gusts: NA
Location:  42.7483°N, 76.6573°W
Report Text: KITH 301456Z 31008KT 10SM BKN020 07/03 A3005 RMK AO2 51008 60000 T00720027 SLP181
Loading
Personal Weather Stations






























Interactive Weather Map
Tropical Storm Tracking
New forecast layout! Learn more

10-Day Weather Forecast

Advertisements
Track Severe Weather on mobile